Time;durP1;ratioP1;P1;durP2;ratioP2;P2;SDS_P1;SDS_P2;PMS_P1;PMS_P2;Temp;Humidity;BMP_temperature;BMP_pressure;BME280_temperature;BME280_humidity;BME280_pressure;Samples;Min_cycle;Max_cycle;Signal;HPM_P1;HPM_P2
2023/01/16 00:01:26;;;;;;;0.50;0.50;;;19.40;57.50;;;;;;4967165;28;20278;-66
2023/01/16 00:03:52;;;;;;;0.70;0.70;;;19.40;57.50;;;;;;4972118;28;20348;-67
2023/01/16 00:06:18;;;;;;;0.77;0.77;;;19.40;57.50;;;;;;4965911;28;20283;-66
2023/01/16 00:08:43;;;;;;;1.42;0.70;;;19.40;57.50;;;;;;4974719;28;20217;-67
2023/01/16 00:11:10;;;;;;;0.70;0.70;;;19.50;57.50;;;;;;4966660;28;20198;-66
2023/01/16 00:13:38;;;;;;;0.80;0.80;;;19.40;58.10;;;;;;4971815;28;20200;-65
2023/01/16 00:16:04;;;;;;;0.85;0.63;;;19.40;57.40;;;;;;4979709;28;20197;-66
2023/01/16 00:18:30;;;;;;;1.15;0.90;;;19.40;57.50;;;;;;4974897;28;20251;-66
2023/01/16 00:20:56;;;;;;;1.08;0.80;;;19.40;57.50;;;;;;4979688;28;20197;-66
2023/01/16 00:23:22;;;;;;;0.75;0.70;;;19.40;57.50;;;;;;4985168;28;20197;-66
2023/01/16 00:25:47;;;;;;;1.05;0.60;;;19.40;57.50;;;;;;4964036;28;20199;-65
2023/01/16 00:28:14;;;;;;;0.88;0.77;;;19.40;57.50;;;;;;4989153;28;20319;-67
2023/01/16 00:30:42;;;;;;;0.80;0.80;;;19.40;57.50;;;;;;4997001;28;20191;-65
2023/01/16 00:33:08;;;;;;;0.60;0.60;;;19.40;57.40;;;;;;4984100;28;20201;-65
2023/01/16 00:35:34;;;;;;;1.15;0.90;;;19.40;57.40;;;;;;5000356;28;20188;-67
2023/01/16 00:38:00;;;;;;;0.73;0.73;;;19.40;57.40;;;;;;4983009;28;20209;-65
2023/01/16 00:40:27;;;;;;;0.65;0.65;;;19.50;57.50;;;;;;4966654;28;20185;-67
2023/01/16 00:42:53;;;;;;;0.75;0.75;;;19.40;57.40;;;;;;4982802;28;20193;-66
2023/01/16 00:45:18;;;;;;;0.70;0.70;;;19.40;57.40;;;;;;4974544;28;20200;-67
2023/01/16 00:47:44;;;;;;;0.52;0.52;;;19.40;57.40;;;;;;4982570;28;20216;-65
2023/01/16 00:50:11;;;;;;;0.80;0.80;;;19.40;57.40;;;;;;4990768;28;20188;-66
2023/01/16 00:52:37;;;;;;;1.27;0.90;;;19.40;57.40;;;;;;5003395;28;20278;-66
2023/01/16 00:55:03;;;;;;;0.80;0.80;;;19.40;57.40;;;;;;4959066;28;20227;-66
2023/01/16 00:57:28;;;;;;;0.93;0.70;;;19.40;57.40;;;;;;4993891;28;20697;-66
2023/01/16 00:59:54;;;;;;;0.65;0.65;;;19.40;57.40;;;;;;4983800;28;20186;-66
2023/01/16 01:02:20;;;;;;;0.60;0.60;;;19.50;57.60;;;;;;4960164;28;20200;-66
2023/01/16 01:04:46;;;;;;;0.65;0.50;;;19.40;57.40;;;;;;4964440;28;20204;-66
2023/01/16 01:07:12;;;;;;;0.55;0.50;;;19.40;57.40;;;;;;4976308;28;20216;-66
2023/01/16 01:09:37;;;;;;;0.40;0.40;;;19.40;57.40;;;;;;4942964;28;20232;-66
2023/01/16 01:12:03;;;;;;;2.03;0.70;;;19.40;57.40;;;;;;4958913;28;20182;-66
2023/01/16 01:14:29;;;;;;;0.70;0.70;;;19.40;57.40;;;;;;4942708;28;20185;-67
2023/01/16 01:16:55;;;;;;;0.63;0.60;;;19.40;57.30;;;;;;4973218;28;20203;-66
2023/01/16 01:19:21;;;;;;;0.73;0.50;;;19.40;57.40;;;;;;4961955;28;20180;-66
2023/01/16 01:21:46;;;;;;;0.75;0.50;;;19.40;57.40;;;;;;4978281;28;20185;-66
2023/01/16 01:24:12;;;;;;;0.73;0.70;;;19.40;57.40;;;;;;4961675;28;20194;-65
2023/01/16 01:26:38;;;;;;;0.55;0.50;;;19.40;57.40;;;;;;4958535;28;20185;-66
2023/01/16 01:29:04;;;;;;;0.63;0.45;;;19.40;57.40;;;;;;4972805;28;20217;-67
2023/01/16 01:31:30;;;;;;;1.00;0.60;;;19.40;57.40;;;;;;4993840;28;20209;-66
2023/01/16 01:33:55;;;;;;;0.88;0.55;;;19.40;57.40;;;;;;4961888;28;20222;-66
2023/01/16 01:36:21;;;;;;;0.52;0.50;;;19.40;57.40;;;;;;4974524;28;20193;-66
2023/01/16 01:38:49;;;;;;;0.47;0.47;;;19.40;57.30;;;;;;4975473;28;20263;-67
2023/01/16 01:41:16;;;;;;;0.68;0.52;;;19.40;57.30;;;;;;4959449;28;20189;-66
2023/01/16 01:43:54;;;;;;;0.75;0.60;;;19.50;57.40;;;;;;4962156;28;20228;-66
2023/01/16 01:46:43;;;;;;;0.82;0.80;;;19.40;57.30;;;;;;4978014;28;20181;-66
2023/01/16 01:49:29;;;;;;;1.45;0.70;;;19.40;57.30;;;;;;4977465;28;20263;-66
2023/01/16 01:52:01;;;;;;;0.55;0.55;;;19.50;57.40;;;;;;4974279;28;20194;-66
2023/01/16 01:54:37;;;;;;;1.13;0.68;;;19.40;57.30;;;;;;4942331;28;20189;-66
2023/01/16 01:57:11;;;;;;;0.98;0.77;;;19.40;57.30;;;;;;4942307;28;20281;-67
2023/01/16 01:59:49;;;;;;;1.40;0.60;;;19.40;57.30;;;;;;4957811;28;20241;-67
2023/01/16 02:02:20;;;;;;;0.60;0.60;;;19.40;57.30;;;;;;4959046;28;20196;-66
2023/01/16 02:04:49;;;;;;;0.85;0.57;;;19.40;57.30;;;;;;4961241;28;20209;-67
2023/01/16 02:07:18;;;;;;;0.60;0.60;;;19.40;57.20;;;;;;4960812;28;20197;-66
2023/01/16 02:09:43;;;;;;;0.70;0.50;;;19.40;57.30;;;;;;4961061;28;20216;-67
2023/01/16 02:12:14;;;;;;;0.85;0.70;;;19.40;57.30;;;;;;4976631;28;20549;-66
2023/01/16 02:14:45;;;;;;;0.85;0.60;;;19.40;57.30;;;;;;4977011;28;20260;-66
2023/01/16 02:20:25;;;;;;;1.50;0.70;;;19.40;57.20;;;;;;4994251;28;20180;-66
2023/01/16 02:23:31;;;;;;;0.70;0.70;;;19.40;57.30;;;;;;4994319;28;20181;-65
2023/01/16 02:26:17;;;;;;;0.60;0.60;;;19.50;57.30;;;;;;4960748;28;20196;-66
2023/01/16 02:29:14;;;;;;;0.65;0.60;;;19.40;57.20;;;;;;4992522;28;20224;-65
2023/01/16 02:31:55;;;;;;;0.60;0.50;;;19.40;57.10;;;;;;4976738;28;20184;-66
2023/01/16 02:34:42;;;;;;;0.75;0.55;;;19.40;57.20;;;;;;4976775;28;20269;-66
2023/01/16 02:37:32;;;;;;;1.48;0.50;;;19.40;57.20;;;;;;4960318;28;20208;-64
2023/01/16 02:40:32;;;;;;;1.45;0.60;;;19.50;57.20;;;;;;4976338;28;20217;-66
2023/01/16 02:43:34;;;;;;;0.73;0.63;;;19.40;57.10;;;;;;4960405;28;20185;-67
2023/01/16 02:46:22;;;;;;;1.10;0.70;;;19.40;57.10;;;;;;4967703;28;20204;-65
2023/01/16 02:49:18;;;;;;;0.52;0.52;;;19.40;57.10;;;;;;4992400;28;20224;-66
2023/01/16 02:52:11;;;;;;;0.82;0.63;;;19.40;57.10;;;;;;4976263;28;20211;-66
2023/01/16 02:54:52;;;;;;;0.85;0.60;;;19.40;57.20;;;;;;4960487;28;20184;-67
2023/01/16 02:57:24;;;;;;;1.13;0.57;;;19.40;57.10;;;;;;4976411;28;20232;-66
2023/01/16 02:59:51;;;;;;;0.50;0.50;;;19.40;57.10;;;;;;4960175;28;20177;-66
2023/01/16 03:02:17;;;;;;;0.60;0.60;;;19.40;57.00;;;;;;4976264;28;20188;-66
2023/01/16 03:04:49;;;;;;;0.85;0.60;;;19.40;57.10;;;;;;4960302;28;20264;-67
2023/01/16 03:07:39;;;;;;;0.50;0.50;;;19.40;57.10;;;;;;4974686;28;20235;-66
2023/01/16 03:10:23;;;;;;;1.50;0.90;;;19.40;57.00;;;;;;4975471;28;20704;-66
2023/01/16 03:13:14;;;;;;;1.50;0.50;;;19.40;57.10;;;;;;4959718;28;20263;-67
2023/01/16 03:16:07;;;;;;;0.40;0.40;;;19.40;57.00;;;;;;4992122;28;20180;-65
2023/01/16 03:19:17;;;;;;;1.45;0.60;;;19.50;57.10;;;;;;4975747;28;20213;-67
2023/01/16 03:21:59;;;;;;;0.65;0.65;;;19.40;57.00;;;;;;4936865;29;20186;-67
2023/01/16 03:25:20;;;;;;;1.08;0.60;;;19.40;57.00;;;;;;4971965;28;20247;-66
2023/01/16 03:27:59;;;;;;;0.63;0.50;;;19.40;57.00;;;;;;4951832;28;20220;-66
2023/01/16 03:31:05;;;;;;;0.98;0.68;;;19.50;57.10;;;;;;4991643;28;20279;-66
2023/01/16 03:33:48;;;;;;;0.82;0.60;;;19.50;57.10;;;;;;4974219;28;20204;-66
2023/01/16 03:36:45;;;;;;;0.95;0.63;;;19.40;57.00;;;;;;4991599;28;20193;-66
2023/01/16 03:39:14;;;;;;;0.85;0.50;;;19.40;57.00;;;;;;4992643;28;20259;-66
2023/01/16 03:41:43;;;;;;;0.88;0.60;;;19.40;57.10;;;;;;4959429;28;20276;-66
2023/01/16 03:44:18;;;;;;;0.75;0.60;;;19.50;57.10;;;;;;4959266;28;20212;-66
2023/01/16 03:46:51;;;;;;;0.50;0.50;;;19.50;57.10;;;;;;4968064;28;20199;-66
2023/01/16 03:49:26;;;;;;;0.50;0.50;;;19.40;57.00;;;;;;4955640;28;20308;-66
2023/01/16 03:51:59;;;;;;;0.50;0.50;;;19.40;57.10;;;;;;4945236;28;20207;-66
2023/01/16 03:54:48;;;;;;;0.90;0.80;;;19.40;57.00;;;;;;4991780;28;20216;-66
2023/01/16 03:58:03;;;;;;;0.50;0.50;;;19.40;57.00;;;;;;4959271;28;20259;-66
2023/01/16 04:00:50;;;;;;;0.85;0.65;;;19.40;57.00;;;;;;4955448;28;20206;-66
2023/01/16 04:03:27;;;;;;;0.60;0.57;;;19.40;57.10;;;;;;4956139;28;20631;-66
2023/01/16 04:06:18;;;;;;;0.43;0.43;;;19.50;57.10;;;;;;4955998;28;20174;-66
2023/01/16 04:08:46;;;;;;;0.68;0.60;;;19.40;57.00;;;;;;4955637;28;20221;-67
2023/01/16 04:11:18;;;;;;;0.85;0.77;;;19.50;57.70;;;;;;4956167;28;20201;-67
2023/01/16 04:13:49;;;;;;;0.85;0.70;;;19.50;57.10;;;;;;4973268;28;20182;-66
2023/01/16 04:16:19;;;;;;;0.85;0.80;;;19.50;57.00;;;;;;4973497;28;20571;-66
2023/01/16 04:18:48;;;;;;;0.73;0.63;;;19.50;57.10;;;;;;4955649;28;20409;-66
2023/01/16 04:21:14;;;;;;;1.05;0.95;;;19.50;57.00;;;;;;4955733;28;20193;-64
2023/01/16 04:23:41;;;;;;;1.23;0.88;;;19.50;57.10;;;;;;4955762;28;20212;-66
2023/01/16 04:26:07;;;;;;;0.93;0.80;;;19.50;57.00;;;;;;4955830;28;20244;-66
2023/01/16 04:28:32;;;;;;;0.68;0.50;;;19.50;57.00;;;;;;4955540;28;20218;-67
2023/01/16 04:30:58;;;;;;;0.80;0.80;;;19.50;57.10;;;;;;4955910;28;20208;-67
2023/01/16 04:33:24;;;;;;;0.63;0.63;;;19.50;57.00;;;;;;4955653;28;20265;-66
2023/01/16 04:35:49;;;;;;;0.88;0.70;;;19.50;57.10;;;;;;4956496;28;20190;-66
2023/01/16 04:38:15;;;;;;;1.00;0.80;;;19.50;57.00;;;;;;4980985;28;20217;-74
2023/01/16 04:40:41;;;;;;;1.40;0.80;;;19.50;57.00;;;;;;4980905;28;20188;-67
2023/01/16 04:43:07;;;;;;;0.98;0.77;;;19.50;57.10;;;;;;4978724;28;20242;-67
2023/01/16 04:45:32;;;;;;;1.25;0.68;;;19.50;57.00;;;;;;4962471;28;20192;-65
2023/01/16 04:48:33;;;;;;;1.08;0.80;;;19.50;57.00;;;;;;5018906;23;20236;-69
2023/01/16 04:50:59;;;;;;;1.00;0.90;;;19.50;57.00;;;;;;5015705;28;20198;-70
2023/01/16 04:53:25;;;;;;;1.08;0.70;;;19.50;57.00;;;;;;4998047;28;20188;-70
2023/01/16 04:55:50;;;;;;;0.85;0.82;;;19.50;57.00;;;;;;4997933;28;20195;-70
2023/01/16 04:58:16;;;;;;;0.80;0.80;;;19.40;56.90;;;;;;5014154;28;20214;-69
2023/01/16 05:00:42;;;;;;;1.40;1.00;;;19.40;56.90;;;;;;5013970;28;20188;-69
2023/01/16 05:03:08;;;;;;;1.40;1.00;;;19.50;57.00;;;;;;5014169;28;20177;-69
2023/01/16 05:05:33;;;;;;;0.77;0.70;;;19.50;57.00;;;;;;5013939;28;20184;-69
2023/01/16 05:08:17;;;;;;;1.75;1.17;;;19.50;56.90;;;;;;5014046;28;20630;-69
2023/01/16 05:10:44;;;;;;;1.00;0.85;;;19.50;57.00;;;;;;5013906;28;20684;-69
2023/01/16 05:13:10;;;;;;;1.10;0.93;;;19.50;57.00;;;;;;5014084;28;20180;-69
2023/01/16 05:15:35;;;;;;;1.58;1.10;;;19.50;56.90;;;;;;5013782;28;20172;-69
2023/01/16 05:18:01;;;;;;;2.30;1.45;;;19.50;57.00;;;;;;4997642;28;20223;-69
2023/01/16 05:20:27;;;;;;;2.60;1.85;;;19.50;56.90;;;;;;5013565;28;20194;-70
2023/01/16 05:22:52;;;;;;;2.78;1.80;;;19.50;57.00;;;;;;5022037;28;20188;-70
2023/01/16 05:25:18;;;;;;;1.85;1.50;;;19.50;56.90;;;;;;5013803;28;20183;-70
2023/01/16 05:27:49;;;;;;;1.80;1.55;;;19.50;56.90;;;;;;5013466;28;20219;-70
2023/01/16 05:30:15;;;;;;;1.60;1.50;;;19.50;56.90;;;;;;5013563;28;20181;-69
2023/01/16 05:32:43;;;;;;;1.60;1.50;;;19.50;56.90;;;;;;5003690;28;20199;-69
2023/01/16 05:35:10;;;;;;;1.70;1.60;;;19.50;56.80;;;;;;5013610;28;20176;-70
2023/01/16 05:37:35;;;;;;;2.17;1.77;;;19.50;57.00;;;;;;4996918;28;20214;-70
2023/01/16 05:40:02;;;;;;;1.50;1.40;;;19.50;56.90;;;;;;5012665;28;20192;-70
2023/01/16 05:42:28;;;;;;;1.48;1.30;;;19.50;56.90;;;;;;5013283;28;20188;-69
2023/01/16 05:44:53;;;;;;;1.77;1.38;;;19.50;56.90;;;;;;4997073;28;20190;-69
2023/01/16 05:47:20;;;;;;;1.98;1.45;;;19.50;56.80;;;;;;5012860;28;20216;-70
2023/01/16 05:49:46;;;;;;;1.48;1.33;;;19.50;56.90;;;;;;5005309;28;20191;-70
2023/01/16 05:52:13;;;;;;;1.30;1.20;;;19.50;56.80;;;;;;4996914;28;20199;-69
2023/01/16 05:54:38;;;;;;;1.60;1.48;;;19.50;56.80;;;;;;5013249;28;20173;-70
2023/01/16 05:57:04;;;;;;;1.55;1.45;;;19.50;56.80;;;;;;5013149;28;20188;-70
2023/01/16 05:59:31;;;;;;;1.65;1.23;;;19.50;56.80;;;;;;5014432;28;20263;-70
2023/01/16 06:01:56;;;;;;;1.42;1.30;;;19.50;56.80;;;;;;5013162;28;20176;-70
2023/01/16 06:04:23;;;;;;;1.73;1.23;;;19.50;56.80;;;;;;4998133;28;20239;-70
2023/01/16 06:06:49;;;;;;;1.98;1.33;;;19.50;56.80;;;;;;5013277;28;20184;-70
2023/01/16 06:09:15;;;;;;;1.50;1.30;;;19.50;56.80;;;;;;5012824;28;20262;-70
2023/01/16 06:11:41;;;;;;;1.58;1.27;;;19.50;56.90;;;;;;5013246;28;20204;-70
2023/01/16 06:14:08;;;;;;;1.52;1.02;;;19.50;56.80;;;;;;5012462;28;20230;-70
2023/01/16 06:16:34;;;;;;;4.05;1.30;;;19.50;56.80;;;;;;5013608;28;20184;-70
2023/01/16 06:19:01;;;;;;;1.50;1.17;;;19.50;56.80;;;;;;5011826;28;20220;-70
2023/01/16 06:21:27;;;;;;;1.45;1.25;;;19.50;56.70;;;;;;4995771;28;20196;-70
2023/01/16 06:23:53;;;;;;;1.40;1.30;;;19.50;56.70;;;;;;5013535;28;20192;-70
2023/01/16 06:26:19;;;;;;;1.30;1.20;;;19.50;56.80;;;;;;5012336;28;20661;-70
2023/01/16 06:28:46;;;;;;;1.75;1.10;;;19.50;56.70;;;;;;5011847;28;20231;-70
2023/01/16 06:31:11;;;;;;;1.35;1.20;;;19.50;56.80;;;;;;5012143;28;20192;-70
2023/01/16 06:33:38;;;;;;;1.05;1.00;;;19.50;56.70;;;;;;5013232;28;20199;-70
2023/01/16 06:36:04;;;;;;;2.15;1.23;;;19.40;56.80;;;;;;5012014;28;20180;-70
2023/01/16 06:38:29;;;;;;;1.17;1.00;;;19.50;56.70;;;;;;5011547;28;20604;-70
2023/01/16 06:40:56;;;;;;;2.08;1.15;;;19.50;56.70;;;;;;5004080;28;20192;-69
2023/01/16 06:43:26;;;;;;;1.30;1.20;;;19.50;56.70;;;;;;5012016;28;20200;-70
2023/01/16 06:45:53;;;;;;;2.65;1.13;;;19.50;56.70;;;;;;5010210;28;20192;-70
2023/01/16 06:48:20;;;;;;;1.30;1.20;;;19.50;56.70;;;;;;5010008;28;20223;-70
2023/01/16 06:50:46;;;;;;;1.38;1.13;;;19.50;56.70;;;;;;4994866;28;20192;-70
2023/01/16 06:53:12;;;;;;;1.48;1.10;;;19.50;56.70;;;;;;5006526;28;20197;-70
2023/01/16 06:55:40;;;;;;;2.15;1.00;;;19.50;56.70;;;;;;5010308;28;20210;-70
2023/01/16 06:58:07;;;;;;;1.88;1.08;;;19.50;56.70;;;;;;4991554;28;20245;-70
2023/01/16 07:00:34;;;;;;;2.13;1.10;;;19.50;56.70;;;;;;5000638;28;20185;-70
2023/01/16 07:03:01;;;;;;;1.63;1.25;;;19.50;56.70;;;;;;5012745;28;20261;-70
2023/01/16 07:05:29;;;;;;;1.73;1.20;;;19.50;56.70;;;;;;5011587;28;20188;-70
2023/01/16 07:07:56;;;;;;;1.20;1.02;;;19.50;56.70;;;;;;5011287;28;20208;-70
2023/01/16 07:10:22;;;;;;;1.58;0.95;;;19.50;56.70;;;;;;5011196;28;20202;-70
2023/01/16 07:12:50;;;;;;;2.03;1.23;;;19.50;56.60;;;;;;5011309;28;20192;-70
2023/01/16 07:23:47;;;;;;;1.60;1.05;;;19.50;56.60;;;;;;5012423;28;20191;-70
2023/01/16 07:26:18;;;;;;;1.25;1.00;;;19.50;57.10;;;;;;5011453;28;20203;-70
2023/01/16 07:28:46;;;;;;;1.20;0.93;;;19.40;56.50;;;;;;4993509;28;20224;-70
2023/01/16 07:31:13;;;;;;;1.02;0.90;;;19.50;56.60;;;;;;4991512;28;20199;-70
2023/01/16 07:33:39;;;;;;;1.75;1.10;;;19.50;56.50;;;;;;5010487;28;20188;-70
2023/01/16 07:36:05;;;;;;;0.98;0.80;;;19.50;56.60;;;;;;5012115;28;20188;-70
2023/01/16 07:38:31;;;;;;;1.30;1.00;;;19.50;56.50;;;;;;4986357;28;20220;-70
2023/01/16 07:40:56;;;;;;;1.38;1.08;;;19.40;56.40;;;;;;5010833;28;20188;-70
2023/01/16 07:43:22;;;;;;;1.42;0.95;;;19.50;56.50;;;;;;4991454;28;20283;-70
2023/01/16 07:45:52;;;;;;;1.38;1.02;;;19.40;56.50;;;;;;4994277;28;20196;-70
2023/01/16 07:48:26;;;;;;;1.10;1.00;;;19.50;56.50;;;;;;5007309;28;20255;-70
2023/01/16 07:50:55;;;;;;;1.23;1.13;;;19.50;56.50;;;;;;5011049;28;20204;-70
2023/01/16 07:53:23;;;;;;;1.50;1.20;;;19.50;56.50;;;;;;5012248;28;20191;-70
2023/01/16 07:55:52;;;;;;;1.00;0.90;;;19.50;56.50;;;;;;5010763;28;20192;-70
2023/01/16 07:58:19;;;;;;;1.85;1.05;;;19.50;56.50;;;;;;4994140;28;20297;-70
2023/01/16 08:00:45;;;;;;;2.15;1.00;;;19.50;56.50;;;;;;5010482;28;20188;-70
2023/01/16 08:03:13;;;;;;;1.13;1.00;;;19.50;56.50;;;;;;4991299;28;20203;-70
2023/01/16 08:05:38;;;;;;;1.17;1.05;;;19.50;56.40;;;;;;4990617;28;20200;-70
2023/01/16 08:08:05;;;;;;;1.40;1.00;;;19.50;56.40;;;;;;5010010;28;20211;-69
2023/01/16 08:10:30;;;;;;;1.00;0.90;;;19.50;56.40;;;;;;4995891;28;20192;-70
2023/01/16 08:12:56;;;;;;;1.45;0.98;;;19.50;56.50;;;;;;5012127;28;20272;-70
2023/01/16 08:15:22;;;;;;;1.20;1.10;;;19.50;56.40;;;;;;5012034;28;20196;-70
2023/01/16 08:17:47;;;;;;;1.30;0.98;;;19.50;56.40;;;;;;5014492;28;20266;-70
2023/01/16 08:20:13;;;;;;;1.20;1.00;;;19.50;56.40;;;;;;5015595;28;20274;-70
2023/01/16 08:22:49;;;;;;;1.30;1.13;;;19.50;56.40;;;;;;5014339;28;20192;-70
2023/01/16 08:25:18;;;;;;;1.13;1.00;;;19.50;56.30;;;;;;4994826;28;20247;-70
2023/01/16 08:27:44;;;;;;;2.40;1.10;;;19.50;56.30;;;;;;5014056;28;20257;-70
2023/01/16 08:30:11;;;;;;;1.25;1.00;;;19.50;56.30;;;;;;4998134;28;20183;-70
2023/01/16 08:32:37;;;;;;;1.40;1.10;;;19.50;56.30;;;;;;5006327;28;20184;-70
2023/01/16 08:35:04;;;;;;;2.10;1.13;;;19.50;56.30;;;;;;5014201;28;20192;-70
2023/01/16 08:37:31;;;;;;;1.20;0.90;;;19.50;56.30;;;;;;4994476;28;20201;-70
2023/01/16 08:39:56;;;;;;;1.40;1.20;;;19.50;56.30;;;;;;5001894;28;20649;-70
2023/01/16 08:53:30;;;;;;;1.02;1.02;;;19.50;56.30;;;;;;5014209;28;20271;-70
2023/01/16 08:55:55;;;;;;;1.20;1.10;;;19.50;56.20;;;;;;5013986;28;20275;-70
2023/01/16 08:58:21;;;;;;;1.60;1.10;;;19.50;56.80;;;;;;5013840;28;20216;-70
2023/01/16 09:00:48;;;;;;;1.15;1.05;;;19.50;56.20;;;;;;4997220;28;20186;-70
2023/01/16 09:03:18;;;;;;;1.13;1.00;;;19.50;56.10;;;;;;5013842;28;20199;-70
2023/01/16 09:05:44;;;;;;;1.17;1.00;;;19.50;56.10;;;;;;5013638;28;20271;-70
2023/01/16 09:08:10;;;;;;;1.30;1.20;;;19.50;56.20;;;;;;5005422;28;20299;-70
2023/01/16 09:10:36;;;;;;;0.90;0.90;;;19.50;56.20;;;;;;5013356;28;20279;-70
2023/01/16 09:15:47;;;;;;;1.30;1.17;;;19.50;56.20;;;;;;5001910;28;20227;-69
2023/01/16 09:18:13;;;;;;;1.42;1.20;;;19.50;56.10;;;;;;4993840;28;20228;-70
2023/01/16 09:20:39;;;;;;;1.17;1.08;;;19.50;56.20;;;;;;5010847;28;20192;-70
2023/01/16 09:23:05;;;;;;;1.20;1.10;;;19.50;56.20;;;;;;5012857;28;20184;-70
2023/01/16 09:25:33;;;;;;;1.17;1.08;;;19.50;56.20;;;;;;4997132;28;20245;-70
2023/01/16 09:27:59;;;;;;;1.27;1.17;;;19.50;56.20;;;;;;4996773;28;20307;-70
2023/01/16 09:30:27;;;;;;;1.23;1.13;;;19.50;56.10;;;;;;5013255;28;20218;-70
2023/01/16 09:32:53;;;;;;;1.02;1.02;;;19.60;56.20;;;;;;5013217;28;20283;-70
2023/01/16 09:35:19;;;;;;;1.20;1.10;;;19.50;56.20;;;;;;5013133;28;20195;-70
2023/01/16 09:37:46;;;;;;;1.15;1.05;;;19.50;56.10;;;;;;5012960;28;20210;-70
2023/01/16 09:40:22;;;;;;;0.95;0.90;;;19.50;56.10;;;;;;5007983;28;20219;-70
2023/01/16 09:45:54;;;;;;;1.38;1.20;;;19.60;56.10;;;;;;5013022;28;20198;-70
2023/01/16 09:48:30;;;;;;;1.38;1.27;;;19.60;56.10;;;;;;5009417;28;20220;-70
2023/01/16 09:51:07;;;;;;;1.10;1.00;;;19.50;56.00;;;;;;4996278;28;20211;-70
2023/01/16 09:59:54;;;;;;;1.33;1.10;;;19.60;56.00;;;;;;5024659;28;20572;-70
2023/01/16 10:02:27;;;;;;;1.35;1.10;;;19.60;56.00;;;;;;5012810;28;20241;-70
2023/01/16 10:04:57;;;;;;;0.95;0.95;;;19.60;55.90;;;;;;5012626;28;20192;-70
2023/01/16 10:07:43;;;;;;;1.25;1.15;;;19.60;55.90;;;;;;5005450;28;20315;-70
2023/01/16 10:10:41;;;;;;;1.27;1.00;;;19.60;55.90;;;;;;4995973;28;20278;-70
2023/01/16 10:13:29;;;;;;;1.10;1.00;;;19.60;55.90;;;;;;5013737;28;20250;-70
2023/01/16 10:16:26;;;;;;;1.33;1.23;;;19.60;56.00;;;;;;5013279;28;20215;-70
2023/01/16 10:19:39;;;;;;;1.20;1.10;;;19.60;55.90;;;;;;5012053;28;20215;-70
2023/01/16 10:22:23;;;;;;;1.05;0.90;;;19.60;55.90;;;;;;4995919;28;20202;-70
2023/01/16 10:25:16;;;;;;;1.42;1.00;;;19.60;55.80;;;;;;5004278;28;20211;-70
2023/01/16 10:28:41;;;;;;;1.05;0.95;;;19.60;55.80;;;;;;5012226;28;20274;-70
2023/01/16 10:31:18;;;;;;;0.80;0.80;;;19.60;55.80;;;;;;5000023;28;20685;-70
2023/01/16 10:34:13;;;;;;;1.40;1.25;;;19.60;55.80;;;;;;5005219;28;20184;-70
2023/01/16 10:36:46;;;;;;;1.33;1.23;;;19.60;55.90;;;;;;5011989;28;20199;-70
2023/01/16 10:39:16;;;;;;;1.08;1.02;;;19.60;55.90;;;;;;5008596;28;20242;-70
2023/01/16 10:50:34;;;;;;;0.90;0.90;;;19.60;55.80;;;;;;4992979;28;20227;-67
2023/01/16 10:53:00;;;;;;;1.05;0.95;;;19.60;55.90;;;;;;4959863;28;20189;-67
2023/01/16 10:55:26;;;;;;;1.27;1.10;;;19.60;55.80;;;;;;4975976;28;20288;-67
2023/01/16 10:58:02;;;;;;;0.88;0.88;;;19.60;55.90;;;;;;4958291;28;20230;-67
2023/01/16 11:00:35;;;;;;;0.90;0.90;;;19.60;55.90;;;;;;4975941;28;20238;-67
2023/01/16 11:03:18;;;;;;;0.95;0.90;;;19.60;55.80;;;;;;4959806;28;20188;-67
2023/01/16 11:05:44;;;;;;;1.10;1.00;;;19.60;55.90;;;;;;4959977;28;20192;-67
2023/01/16 11:08:13;;;;;;;0.95;0.75;;;19.60;55.80;;;;;;4965466;28;20567;-67
2023/01/16 11:10:49;;;;;;;0.90;0.90;;;19.60;55.90;;;;;;4958364;28;20194;-68
2023/01/16 11:19:20;;;;;;;1.00;0.90;;;19.60;55.90;;;;;;4965271;28;20220;-67
2023/01/16 11:21:54;;;;;;;0.80;0.80;;;19.60;55.90;;;;;;4982016;28;20198;-68
2023/01/16 11:24:33;;;;;;;0.80;0.80;;;19.60;55.80;;;;;;4979327;28;20196;-67
2023/01/16 11:27:05;;;;;;;0.80;0.80;;;19.60;55.80;;;;;;4965417;28;20729;-67
2023/01/16 11:29:38;;;;;;;1.00;0.90;;;19.60;55.80;;;;;;4972602;28;20312;-68
2023/01/16 11:32:09;;;;;;;1.02;0.80;;;19.60;55.80;;;;;;4967838;28;20248;-67
2023/01/16 11:34:43;;;;;;;0.90;0.90;;;19.60;56.20;;;;;;4969833;28;20199;-67
2023/01/16 11:37:15;;;;;;;0.80;0.80;;;19.60;56.00;;;;;;4974285;28;20186;-68
2023/01/16 11:39:46;;;;;;;1.00;1.00;;;19.60;56.00;;;;;;4947928;28;20649;-67
2023/01/16 11:47:55;;;;;;;0.77;0.75;;;19.60;56.00;;;;;;4957042;28;20226;-68
2023/01/16 11:50:35;;;;;;;1.00;0.95;;;19.60;56.00;;;;;;4984551;28;20203;-67
2023/01/16 11:53:01;;;;;;;0.82;0.82;;;19.60;56.00;;;;;;4970265;28;20242;-67
2023/01/16 11:56:11;;;;;;;0.80;0.80;;;19.70;56.10;;;;;;4976176;28;20198;-67
2023/01/16 11:59:14;;;;;;;1.00;0.90;;;19.60;56.00;;;;;;4917189;28;20229;-67
2023/01/16 12:05:53;;;;;;;0.85;0.80;;;19.70;56.10;;;;;;4980520;28;20193;-68
2023/01/16 12:08:20;;;;;;;0.60;0.60;;;19.60;56.10;;;;;;4980292;28;20622;-68
2023/01/16 12:11:21;;;;;;;0.90;0.90;;;19.60;56.10;;;;;;4960169;28;20213;-67
2023/01/16 12:14:17;;;;;;;0.90;0.90;;;19.70;56.20;;;;;;4969277;28;20180;-67
2023/01/16 12:17:26;;;;;;;0.68;0.65;;;19.70;56.20;;;;;;4951215;28;20192;-68
2023/01/16 12:20:16;;;;;;;0.70;0.70;;;19.70;56.20;;;;;;4973729;28;20207;-67
2023/01/16 12:23:05;;;;;;;0.77;0.75;;;19.70;56.20;;;;;;4964024;28;20301;-68
2023/01/16 12:26:21;;;;;;;0.82;0.82;;;19.70;56.20;;;;;;4947720;28;20197;-68
2023/01/16 12:29:17;;;;;;;0.70;0.70;;;19.70;56.20;;;;;;4963837;28;20263;-68
2023/01/16 12:32:41;;;;;;;1.05;0.73;;;19.70;56.20;;;;;;4967980;28;20200;-68
2023/01/16 12:35:33;;;;;;;0.77;0.77;;;19.70;56.20;;;;;;4958868;28;20285;-68
2023/01/16 12:38:26;;;;;;;1.00;0.70;;;19.70;56.20;;;;;;4963885;28;20214;-67
2023/01/16 12:44:10;;;;;;;0.63;0.63;;;19.70;56.20;;;;;;4965973;28;20206;-68
2023/01/16 12:46:42;;;;;;;0.80;0.80;;;19.70;56.20;;;;;;4975172;28;20200;-68
2023/01/16 12:49:29;;;;;;;0.80;0.80;;;19.70;56.20;;;;;;4950902;28;20216;-68
2023/01/16 12:52:31;;;;;;;1.02;0.68;;;19.70;56.40;;;;;;4946901;29;20198;-68
2023/01/16 12:55:07;;;;;;;0.77;0.70;;;19.70;56.40;;;;;;4961928;28;20633;-68
2023/01/16 12:58:01;;;;;;;0.70;0.63;;;19.70;56.30;;;;;;4941605;28;20189;-67
2023/01/16 13:00:39;;;;;;;0.60;0.60;;;19.70;56.20;;;;;;4975186;28;20200;-67
2023/01/16 13:03:39;;;;;;;0.70;0.70;;;19.70;56.20;;;;;;4975402;28;20666;-67
2023/01/16 13:06:13;;;;;;;0.70;0.70;;;19.70;56.30;;;;;;4977748;28;20708;-67
2023/01/16 13:08:59;;;;;;;0.80;0.80;;;19.70;56.20;;;;;;4951145;28;20233;-67
2023/01/16 13:14:22;;;;;;;0.60;0.60;;;19.70;56.30;;;;;;4981788;28;20213;-67
2023/01/16 13:17:05;;;;;;;0.80;0.75;;;19.70;56.30;;;;;;4977788;28;20193;-68
2023/01/16 13:19:38;;;;;;;0.77;0.70;;;19.70;56.30;;;;;;4964715;28;20219;-67
2023/01/16 13:22:33;;;;;;;1.05;0.80;;;19.70;56.30;;;;;;4968243;28;20201;-67
2023/01/16 13:25:16;;;;;;;0.80;0.77;;;19.70;56.30;;;;;;4968303;28;20361;-67
2023/01/16 13:27:50;;;;;;;0.82;0.63;;;19.70;57.00;;;;;;4953863;28;20201;-67
2023/01/16 13:30:19;;;;;;;0.80;0.80;;;19.70;56.40;;;;;;4947314;29;20341;-67
2023/01/16 13:33:04;;;;;;;0.63;0.63;;;19.70;56.30;;;;;;4970808;28;20200;-67
2023/01/16 13:35:47;;;;;;;1.40;0.80;;;19.70;56.30;;;;;;4980511;28;20193;-67
2023/01/16 13:38:40;;;;;;;0.65;0.65;;;19.70;56.30;;;;;;4969808;28;20237;-67
2023/01/16 13:41:21;;;;;;;0.68;0.63;;;19.70;56.40;;;;;;4940215;29;20206;-67
2023/01/16 13:46:46;;;;;;;1.08;0.98;;;19.80;56.40;;;;;;4986587;28;20205;-67
2023/01/16 13:49:24;;;;;;;0.90;0.90;;;19.80;56.40;;;;;;4973850;28;20228;-67
2023/01/16 13:51:52;;;;;;;0.70;0.70;;;19.70;56.30;;;;;;4974282;28;20193;-67
2023/01/16 13:54:31;;;;;;;0.70;0.70;;;19.70;56.40;;;;;;4958866;28;20178;-67
2023/01/16 13:57:03;;;;;;;1.20;0.70;;;19.80;56.40;;;;;;4968646;28;20254;-68
2023/01/16 13:59:54;;;;;;;0.68;0.60;;;19.80;56.50;;;;;;4965801;28;20205;-67
2023/01/16 14:02:35;;;;;;;0.68;0.60;;;19.70;56.30;;;;;;4966047;28;20205;-67
2023/01/16 14:05:07;;;;;;;0.75;0.60;;;19.80;56.40;;;;;;4956542;28;20197;-67
2023/01/16 14:10:57;;;;;;;0.70;0.70;;;19.80;56.40;;;;;;4978384;28;20185;-67
2023/01/16 14:13:39;;;;;;;0.70;0.70;;;19.80;56.40;;;;;;4941962;28;20278;-67
2023/01/16 14:16:35;;;;;;;0.80;0.80;;;19.80;56.40;;;;;;4974969;28;20186;-68
2023/01/16 14:19:14;;;;;;;0.70;0.70;;;19.70;56.40;;;;;;4973468;28;20210;-67
2023/01/16 14:24:00;;;;;;;0.70;0.70;;;19.70;56.40;;;;;;4981982;28;20200;-67
2023/01/16 14:24:45;;;;;;;1.10;1.00;;;19.70;56.40;;;;;;4963963;28;20192;-67
2023/01/16 14:27:19;;;;;;;1.10;0.73;;;19.80;56.50;;;;;;4965128;28;20201;-68
2023/01/16 14:29:55;;;;;;;1.48;0.90;;;19.70;56.40;;;;;;4972546;28;20212;-67
2023/01/16 14:32:28;;;;;;;1.40;0.95;;;19.80;56.50;;;;;;4938815;28;20199;-67
2023/01/16 14:35:18;;;;;;;0.60;0.60;;;19.80;56.50;;;;;;4976550;28;20232;-67